sensor_id;sensor_type;location;lat;lon;timestamp;pressure;altitude;pressure_sealevel;temperature
10598;BMP180;5346;48.766;8.674;2023-02-28T00:00:45;94418.00;;;-5.50
10598;BMP180;5346;48.766;8.674;2023-02-28T00:03:18;94403.00;;;-5.40
10598;BMP180;5346;48.766;8.674;2023-02-28T00:05:45;94355.00;;;-5.50
10598;BMP180;5346;48.766;8.674;2023-02-28T00:08:18;94390.00;;;-5.40
10598;BMP180;5346;48.766;8.674;2023-02-28T00:10:51;94371.00;;;-5.40
10598;BMP180;5346;48.766;8.674;2023-02-28T00:13:17;94413.00;;;-5.50
10598;BMP180;5346;48.766;8.674;2023-02-28T00:16:03;94392.00;;;-5.50
10598;BMP180;5346;48.766;8.674;2023-02-28T00:18:31;94406.00;;;-5.50
10598;BMP180;5346;48.766;8.674;2023-02-28T00:21:06;94369.00;;;-5.50
10598;BMP180;5346;48.766;8.674;2023-02-28T00:23:39;94412.00;;;-5.50
10598;BMP180;5346;48.766;8.674;2023-02-28T00:26:13;94408.00;;;-5.60
10598;BMP180;5346;48.766;8.674;2023-02-28T00:28:47;94400.00;;;-5.60
10598;BMP180;5346;48.766;8.674;2023-02-28T00:31:22;94375.00;;;-5.60
10598;BMP180;5346;48.766;8.674;2023-02-28T00:33:56;94387.00;;;-5.70
10598;BMP180;5346;48.766;8.674;2023-02-28T00:36:32;94353.00;;;-5.60
10598;BMP180;5346;48.766;8.674;2023-02-28T00:38:59;94384.00;;;-5.60
10598;BMP180;5346;48.766;8.674;2023-02-28T00:41:32;94405.00;;;-5.60
10598;BMP180;5346;48.766;8.674;2023-02-28T00:44:05;94398.00;;;-5.70
10598;BMP180;5346;48.766;8.674;2023-02-28T00:46:51;94347.00;;;-5.80
10598;BMP180;5346;48.766;8.674;2023-02-28T00:49:27;94405.00;;;-5.80
10598;BMP180;5346;48.766;8.674;2023-02-28T00:51:55;94398.00;;;-5.80
10598;BMP180;5346;48.766;8.674;2023-02-28T00:54:29;94360.00;;;-5.70
10598;BMP180;5346;48.766;8.674;2023-02-28T00:56:56;94401.00;;;-5.90
10598;BMP180;5346;48.766;8.674;2023-02-28T00:59:31;94338.00;;;-5.80
10598;BMP180;5346;48.766;8.674;2023-02-28T01:01:58;94271.00;;;-5.80
10598;BMP180;5346;48.766;8.674;2023-02-28T01:04:32;94355.00;;;-5.80
10598;BMP180;5346;48.766;8.674;2023-02-28T01:06:59;94401.00;;;-5.90
10598;BMP180;5346;48.766;8.674;2023-02-28T01:09:33;94305.00;;;-5.90
10598;BMP180;5346;48.766;8.674;2023-02-28T01:12:02;94402.00;;;-5.80
10598;BMP180;5346;48.766;8.674;2023-02-28T01:14:36;94398.00;;;-5.80
10598;BMP180;5346;48.766;8.674;2023-02-28T01:17:03;94390.00;;;-5.80
10598;BMP180;5346;48.766;8.674;2023-02-28T01:19:37;94355.00;;;-5.80
10598;BMP180;5346;48.766;8.674;2023-02-28T01:22:05;94403.00;;;-5.80
10598;BMP180;5346;48.766;8.674;2023-02-28T01:24:41;94364.00;;;-5.90
10598;BMP180;5346;48.766;8.674;2023-02-28T01:27:15;94390.00;;;-5.90
10598;BMP180;5346;48.766;8.674;2023-02-28T01:29:50;94392.00;;;-5.90
10598;BMP180;5346;48.766;8.674;2023-02-28T01:32:17;94356.00;;;-5.90
10598;BMP180;5346;48.766;8.674;2023-02-28T01:34:51;94377.00;;;-5.90
10598;BMP180;5346;48.766;8.674;2023-02-28T01:37:18;94400.00;;;-5.90
10598;BMP180;5346;48.766;8.674;2023-02-28T01:39:52;94381.00;;;-6.00
10598;BMP180;5346;48.766;8.674;2023-02-28T01:42:19;94397.00;;;-6.00
10598;BMP180;5346;48.766;8.674;2023-02-28T01:45:22;94388.00;;;-6.00
10598;BMP180;5346;48.766;8.674;2023-02-28T01:48:07;94282.00;;;-6.00
10598;BMP180;5346;48.766;8.674;2023-02-28T01:50:46;94338.00;;;-6.00
10598;BMP180;5346;48.766;8.674;2023-02-28T01:53:29;94363.00;;;-6.10
10598;BMP180;5346;48.766;8.674;2023-02-28T01:56:07;94365.00;;;-6.00
10598;BMP180;5346;48.766;8.674;2023-02-28T01:58:36;94375.00;;;-6.00
10598;BMP180;5346;48.766;8.674;2023-02-28T02:01:10;94360.00;;;-6.00
10598;BMP180;5346;48.766;8.674;2023-02-28T02:04:00;94385.00;;;-6.00
10598;BMP180;5346;48.766;8.674;2023-02-28T02:06:53;94363.00;;;-6.10
10598;BMP180;5346;48.766;8.674;2023-02-28T02:09:27;94368.00;;;-6.00
10598;BMP180;5346;48.766;8.674;2023-02-28T02:12:56;94378.00;;;-6.10
10598;BMP180;5346;48.766;8.674;2023-02-28T02:19:15;94355.00;;;-6.10
10598;BMP180;5346;48.766;8.674;2023-02-28T02:35:04;94322.00;;;-6.20
10598;BMP180;5346;48.766;8.674;2023-02-28T02:38:18;94366.00;;;-6.20
10598;BMP180;5346;48.766;8.674;2023-02-28T02:41:17;94327.00;;;-6.20
10598;BMP180;5346;48.766;8.674;2023-02-28T02:44:15;94361.00;;;-6.40
10598;BMP180;5346;48.766;8.674;2023-02-28T02:47:09;94322.00;;;-6.40
10598;BMP180;5346;48.766;8.674;2023-02-28T02:50:06;94314.00;;;-6.50
10598;BMP180;5346;48.766;8.674;2023-02-28T02:52:54;94373.00;;;-6.50
10598;BMP180;5346;48.766;8.674;2023-02-28T02:55:23;94353.00;;;-6.50
10598;BMP180;5346;48.766;8.674;2023-02-28T02:58:06;94376.00;;;-6.50
10598;BMP180;5346;48.766;8.674;2023-02-28T03:00:42;94331.00;;;-6.50
10598;BMP180;5346;48.766;8.674;2023-02-28T03:03:19;94324.00;;;-6.40
10598;BMP180;5346;48.766;8.674;2023-02-28T03:05:58;94369.00;;;-6.40
10598;BMP180;5346;48.766;8.674;2023-02-28T03:08:38;94372.00;;;-6.40
10598;BMP180;5346;48.766;8.674;2023-02-28T03:11:12;94373.00;;;-6.40
10598;BMP180;5346;48.766;8.674;2023-02-28T03:26:04;94367.00;;;-6.20
10598;BMP180;5346;48.766;8.674;2023-02-28T03:31:43;94365.00;;;-6.20
10598;BMP180;5346;48.766;8.674;2023-02-28T03:34:36;94369.00;;;-6.10
10598;BMP180;5346;48.766;8.674;2023-02-28T03:37:19;94354.00;;;-6.10
10598;BMP180;5346;48.766;8.674;2023-02-28T03:40:00;94321.00;;;-6.10
10598;BMP180;5346;48.766;8.674;2023-02-28T03:42:39;94330.00;;;-6.00
10598;BMP180;5346;48.766;8.674;2023-02-28T03:45:19;94360.00;;;-5.90
10598;BMP180;5346;48.766;8.674;2023-02-28T03:48:08;94357.00;;;-5.90
10598;BMP180;5346;48.766;8.674;2023-02-28T03:50:44;94360.00;;;-5.90
10598;BMP180;5346;48.766;8.674;2023-02-28T03:53:27;94278.00;;;-6.00
10598;BMP180;5346;48.766;8.674;2023-02-28T03:56:05;94341.00;;;-5.90
10598;BMP180;5346;48.766;8.674;2023-02-28T03:58:54;94363.00;;;-5.90
10598;BMP180;5346;48.766;8.674;2023-02-28T04:01:40;94353.00;;;-5.80
10598;BMP180;5346;48.766;8.674;2023-02-28T04:04:16;94308.00;;;-5.90
10598;BMP180;5346;48.766;8.674;2023-02-28T04:06:44;94331.00;;;-5.80
10598;BMP180;5346;48.766;8.674;2023-02-28T04:09:18;94358.00;;;-5.80
10598;BMP180;5346;48.766;8.674;2023-02-28T04:11:51;94344.00;;;-5.80
10598;BMP180;5346;48.766;8.674;2023-02-28T04:14:25;94373.00;;;-5.80
10598;BMP180;5346;48.766;8.674;2023-02-28T04:16:52;94272.00;;;-5.80
10598;BMP180;5346;48.766;8.674;2023-02-28T04:19:26;94337.00;;;-5.90
10598;BMP180;5346;48.766;8.674;2023-02-28T04:22:00;94278.00;;;-5.80
10598;BMP180;5346;48.766;8.674;2023-02-28T04:24:34;94311.00;;;-5.90
10598;BMP180;5346;48.766;8.674;2023-02-28T04:27:09;94351.00;;;-5.80
10598;BMP180;5346;48.766;8.674;2023-02-28T04:29:43;94327.00;;;-5.80
10598;BMP180;5346;48.766;8.674;2023-02-28T04:32:18;94321.00;;;-5.80
10598;BMP180;5346;48.766;8.674;2023-02-28T04:34:45;94277.00;;;-5.80
10598;BMP180;5346;48.766;8.674;2023-02-28T04:37:19;94341.00;;;-5.80
10598;BMP180;5346;48.766;8.674;2023-02-28T04:39:55;94319.00;;;-5.90
10598;BMP180;5346;48.766;8.674;2023-02-28T04:42:29;94307.00;;;-5.80
10598;BMP180;5346;48.766;8.674;2023-02-28T04:45:09;94325.00;;;-5.80
10598;BMP180;5346;48.766;8.674;2023-02-28T04:47:48;94294.00;;;-5.80
10598;BMP180;5346;48.766;8.674;2023-02-28T04:50:29;94333.00;;;-5.80
10598;BMP180;5346;48.766;8.674;2023-02-28T04:52:56;94358.00;;;-5.60
10598;BMP180;5346;48.766;8.674;2023-02-28T04:55:31;94339.00;;;-5.60
10598;BMP180;5346;48.766;8.674;2023-02-28T04:58:07;94316.00;;;-5.50
10598;BMP180;5346;48.766;8.674;2023-02-28T05:00:41;94363.00;;;-5.90
10598;BMP180;5346;48.766;8.674;2023-02-28T05:03:15;94337.00;;;-5.60
10598;BMP180;5346;48.766;8.674;2023-02-28T05:05:49;94341.00;;;-5.40
10598;BMP180;5346;48.766;8.674;2023-02-28T05:08:24;94366.00;;;-5.50
10598;BMP180;5346;48.766;8.674;2023-02-28T05:10:58;94299.00;;;-5.40
10598;BMP180;5346;48.766;8.674;2023-02-28T05:13:28;94374.00;;;-5.40
10598;BMP180;5346;48.766;8.674;2023-02-28T05:16:02;94364.00;;;-5.30
10598;BMP180;5346;48.766;8.674;2023-02-28T05:18:35;94311.00;;;-5.30
10598;BMP180;5346;48.766;8.674;2023-02-28T05:21:02;94321.00;;;-5.20
10598;BMP180;5346;48.766;8.674;2023-02-28T05:23:36;94333.00;;;-5.30
10598;BMP180;5346;48.766;8.674;2023-02-28T05:26:03;94337.00;;;-5.30
10598;BMP180;5346;48.766;8.674;2023-02-28T05:28:39;94359.00;;;-5.30
10598;BMP180;5346;48.766;8.674;2023-02-28T05:31:15;94373.00;;;-5.20
10598;BMP180;5346;48.766;8.674;2023-02-28T05:33:49;94362.00;;;-5.20
10598;BMP180;5346;48.766;8.674;2023-02-28T05:36:23;94370.00;;;-5.20
10598;BMP180;5346;48.766;8.674;2023-02-28T05:38:57;94361.00;;;-5.30
10598;BMP180;5346;48.766;8.674;2023-02-28T05:41:30;94371.00;;;-5.30
10598;BMP180;5346;48.766;8.674;2023-02-28T05:43:58;94330.00;;;-5.30
10598;BMP180;5346;48.766;8.674;2023-02-28T05:46:33;94325.00;;;-5.20
10598;BMP180;5346;48.766;8.674;2023-02-28T05:49:07;94368.00;;;-5.20
10598;BMP180;5346;48.766;8.674;2023-02-28T05:51:36;94342.00;;;-5.20
10598;BMP180;5346;48.766;8.674;2023-02-28T05:54:13;94358.00;;;-5.20
10598;BMP180;5346;48.766;8.674;2023-02-28T05:56:47;94370.00;;;-5.20
10598;BMP180;5346;48.766;8.674;2023-02-28T05:59:14;94339.00;;;-5.10
10598;BMP180;5346;48.766;8.674;2023-02-28T06:01:48;94361.00;;;-5.20
10598;BMP180;5346;48.766;8.674;2023-02-28T06:04:22;94340.00;;;-5.10
10598;BMP180;5346;48.766;8.674;2023-02-28T06:06:58;94365.00;;;-5.10
10598;BMP180;5346;48.766;8.674;2023-02-28T06:09:32;94366.00;;;-5.20
10598;BMP180;5346;48.766;8.674;2023-02-28T06:12:03;94370.00;;;-5.10
10598;BMP180;5346;48.766;8.674;2023-02-28T06:14:38;94311.00;;;-5.10
10598;BMP180;5346;48.766;8.674;2023-02-28T06:17:06;94365.00;;;-5.10
10598;BMP180;5346;48.766;8.674;2023-02-28T06:19:39;94375.00;;;-5.00
10598;BMP180;5346;48.766;8.674;2023-02-28T06:22:08;94355.00;;;-5.00
10598;BMP180;5346;48.766;8.674;2023-02-28T06:24:42;94379.00;;;-5.10
10598;BMP180;5346;48.766;8.674;2023-02-28T06:27:16;94329.00;;;-5.00
10598;BMP180;5346;48.766;8.674;2023-02-28T06:29:54;94384.00;;;-5.00
10598;BMP180;5346;48.766;8.674;2023-02-28T06:32:29;94353.00;;;-5.00
10598;BMP180;5346;48.766;8.674;2023-02-28T06:35:03;94374.00;;;-5.00
10598;BMP180;5346;48.766;8.674;2023-02-28T06:37:37;94390.00;;;-5.00
10598;BMP180;5346;48.766;8.674;2023-02-28T06:40:11;94335.00;;;-4.90
10598;BMP180;5346;48.766;8.674;2023-02-28T06:42:40;94386.00;;;-4.90
10598;BMP180;5346;48.766;8.674;2023-02-28T06:45:13;94395.00;;;-4.90
10598;BMP180;5346;48.766;8.674;2023-02-28T06:47:54;94396.00;;;-4.80
10598;BMP180;5346;48.766;8.674;2023-02-28T06:50:27;94404.00;;;-4.80
10598;BMP180;5346;48.766;8.674;2023-02-28T06:53:03;94392.00;;;-4.70
10598;BMP180;5346;48.766;8.674;2023-02-28T06:55:39;94401.00;;;-4.60
10598;BMP180;5346;48.766;8.674;2023-02-28T06:58:06;94408.00;;;-4.70
10598;BMP180;5346;48.766;8.674;2023-02-28T07:00:52;94398.00;;;-4.70
10598;BMP180;5346;48.766;8.674;2023-02-28T07:03:19;94404.00;;;-4.80
10598;BMP180;5346;48.766;8.674;2023-02-28T07:05:53;94384.00;;;-4.80
10598;BMP180;5346;48.766;8.674;2023-02-28T07:08:27;94407.00;;;-5.00
10598;BMP180;5346;48.766;8.674;2023-02-28T07:11:02;94406.00;;;-4.80
10598;BMP180;5346;48.766;8.674;2023-02-28T07:13:30;94416.00;;;-4.80
10598;BMP180;5346;48.766;8.674;2023-02-28T07:16:06;94441.00;;;-4.80
10598;BMP180;5346;48.766;8.674;2023-02-28T07:18:41;94381.00;;;-4.80
10598;BMP180;5346;48.766;8.674;2023-02-28T07:21:15;94414.00;;;-4.60
10598;BMP180;5346;48.766;8.674;2023-02-28T07:23:50;94413.00;;;-4.70
10598;BMP180;5346;48.766;8.674;2023-02-28T07:26:24;94382.00;;;-4.80
10598;BMP180;5346;48.766;8.674;2023-02-28T07:28:58;94419.00;;;-4.70
10598;BMP180;5346;48.766;8.674;2023-02-28T07:31:25;94400.00;;;-4.60
10598;BMP180;5346;48.766;8.674;2023-02-28T07:33:59;94409.00;;;-4.70
10598;BMP180;5346;48.766;8.674;2023-02-28T07:36:27;94422.00;;;-4.70
10598;BMP180;5346;48.766;8.674;2023-02-28T07:39:00;94422.00;;;-4.70
10598;BMP180;5346;48.766;8.674;2023-02-28T07:41:27;94421.00;;;-4.60
10598;BMP180;5346;48.766;8.674;2023-02-28T07:44:03;94425.00;;;-4.50
10598;BMP180;5346;48.766;8.674;2023-02-28T07:46:31;94415.00;;;-4.50
10598;BMP180;5346;48.766;8.674;2023-02-28T07:49:12;94423.00;;;-4.50
10598;BMP180;5346;48.766;8.674;2023-02-28T07:51:40;94424.00;;;-4.50
10598;BMP180;5346;48.766;8.674;2023-02-28T07:54:07;94387.00;;;-4.40
10598;BMP180;5346;48.766;8.674;2023-02-28T07:56:41;94424.00;;;-4.40
10598;BMP180;5346;48.766;8.674;2023-02-28T07:59:08;94421.00;;;-4.30
10598;BMP180;5346;48.766;8.674;2023-02-28T08:01:42;94439.00;;;-4.20
10598;BMP180;5346;48.766;8.674;2023-02-28T08:04:11;94412.00;;;-4.10
10598;BMP180;5346;48.766;8.674;2023-02-28T08:06:46;94440.00;;;-3.90
10598;BMP180;5346;48.766;8.674;2023-02-28T08:09:15;94414.00;;;-4.10
10598;BMP180;5346;48.766;8.674;2023-02-28T08:11:42;94435.00;;;-4.00
10598;BMP180;5346;48.766;8.674;2023-02-28T08:14:16;94445.00;;;-3.90
10598;BMP180;5346;48.766;8.674;2023-02-28T08:16:50;94423.00;;;-3.90
10598;BMP180;5346;48.766;8.674;2023-02-28T08:19:17;94404.00;;;-3.80
10598;BMP180;5346;48.766;8.674;2023-02-28T08:21:51;94438.00;;;-3.90
10598;BMP180;5346;48.766;8.674;2023-02-28T08:24:25;94433.00;;;-3.90
10598;BMP180;5346;48.766;8.674;2023-02-28T08:26:59;94435.00;;;-3.80
10598;BMP180;5346;48.766;8.674;2023-02-28T08:29:26;94402.00;;;-3.70
10598;BMP180;5346;48.766;8.674;2023-02-28T08:32:00;94388.00;;;-3.70
10598;BMP180;5346;48.766;8.674;2023-02-28T08:34:46;94437.00;;;-3.80
10598;BMP180;5346;48.766;8.674;2023-02-28T08:37:14;94407.00;;;-3.80
10598;BMP180;5346;48.766;8.674;2023-02-28T08:39:48;94429.00;;;-3.70
10598;BMP180;5346;48.766;8.674;2023-02-28T08:42:15;94399.00;;;-3.70
10598;BMP180;5346;48.766;8.674;2023-02-28T08:44:55;94446.00;;;-3.60
10598;BMP180;5346;48.766;8.674;2023-02-28T08:47:37;94453.00;;;-3.60
10598;BMP180;5346;48.766;8.674;2023-02-28T08:50:11;94451.00;;;-3.90
10598;BMP180;5346;48.766;8.674;2023-02-28T08:52:44;94445.00;;;-3.40
10598;BMP180;5346;48.766;8.674;2023-02-28T08:55:19;94471.00;;;-3.50
10598;BMP180;5346;48.766;8.674;2023-02-28T08:57:53;94454.00;;;-3.40
10598;BMP180;5346;48.766;8.674;2023-02-28T09:00:28;94428.00;;;-3.40
10598;BMP180;5346;48.766;8.674;2023-02-28T09:02:55;94467.00;;;-3.40
10598;BMP180;5346;48.766;8.674;2023-02-28T09:05:29;94458.00;;;-3.40
10598;BMP180;5346;48.766;8.674;2023-02-28T09:07:57;94437.00;;;-3.50
10598;BMP180;5346;48.766;8.674;2023-02-28T09:10:31;94450.00;;;-3.50
10598;BMP180;5346;48.766;8.674;2023-02-28T09:12:58;94473.00;;;-3.40
10598;BMP180;5346;48.766;8.674;2023-02-28T09:15:33;94472.00;;;-3.40
10598;BMP180;5346;48.766;8.674;2023-02-28T09:18:06;94457.00;;;-3.40
10598;BMP180;5346;48.766;8.674;2023-02-28T09:20:42;94446.00;;;-3.40
10598;BMP180;5346;48.766;8.674;2023-02-28T09:23:11;94459.00;;;-3.40
10598;BMP180;5346;48.766;8.674;2023-02-28T09:25:54;94427.00;;;-3.20
10598;BMP180;5346;48.766;8.674;2023-02-28T09:28:34;94456.00;;;-3.20
10598;BMP180;5346;48.766;8.674;2023-02-28T09:31:02;94419.00;;;-3.00
10598;BMP180;5346;48.766;8.674;2023-02-28T09:33:39;94421.00;;;-2.90
10598;BMP180;5346;48.766;8.674;2023-02-28T09:36:13;94448.00;;;-3.20
10598;BMP180;5346;48.766;8.674;2023-02-28T09:38:49;94433.00;;;-3.20
10598;BMP180;5346;48.766;8.674;2023-02-28T09:41:26;94403.00;;;-3.10
10598;BMP180;5346;48.766;8.674;2023-02-28T09:44:07;94398.00;;;-3.30
10598;BMP180;5346;48.766;8.674;2023-02-28T09:46:51;94399.00;;;-3.00
10598;BMP180;5346;48.766;8.674;2023-02-28T09:49:42;94457.00;;;-3.10
10598;BMP180;5346;48.766;8.674;2023-02-28T09:52:21;94448.00;;;-3.00
10598;BMP180;5346;48.766;8.674;2023-02-28T09:55:22;94467.00;;;-2.80
10598;BMP180;5346;48.766;8.674;2023-02-28T09:57:55;94405.00;;;-2.80
10598;BMP180;5346;48.766;8.674;2023-02-28T10:00:39;94458.00;;;-2.80
10598;BMP180;5346;48.766;8.674;2023-02-28T10:03:33;94462.00;;;-2.90
10598;BMP180;5346;48.766;8.674;2023-02-28T10:06:21;94485.00;;;-2.90
10598;BMP180;5346;48.766;8.674;2023-02-28T10:09:08;94461.00;;;-3.10
10598;BMP180;5346;48.766;8.674;2023-02-28T10:11:42;94464.00;;;-2.70
10598;BMP180;5346;48.766;8.674;2023-02-28T10:14:24;94444.00;;;-2.70
10598;BMP180;5346;48.766;8.674;2023-02-28T10:17:12;94473.00;;;-2.60
10598;BMP180;5346;48.766;8.674;2023-02-28T10:20:05;94489.00;;;-2.20
10598;BMP180;5346;48.766;8.674;2023-02-28T10:22:57;94493.00;;;-2.20
10598;BMP180;5346;48.766;8.674;2023-02-28T10:25:31;94465.00;;;-2.10
10598;BMP180;5346;48.766;8.674;2023-02-28T10:28:15;94476.00;;;-2.00
10598;BMP180;5346;48.766;8.674;2023-02-28T10:30:52;94495.00;;;-1.90
10598;BMP180;5346;48.766;8.674;2023-02-28T10:33:34;94468.00;;;-2.00
10598;BMP180;5346;48.766;8.674;2023-02-28T10:36:17;94513.00;;;-2.00
10598;BMP180;5346;48.766;8.674;2023-02-28T10:38:51;94474.00;;;-1.60
10598;BMP180;5346;48.766;8.674;2023-02-28T10:41:32;94497.00;;;-1.70
10598;BMP180;5346;48.766;8.674;2023-02-28T10:44:23;94497.00;;;-1.60
10598;BMP180;5346;48.766;8.674;2023-02-28T10:46:58;94466.00;;;-1.60
10598;BMP180;5346;48.766;8.674;2023-02-28T10:49:50;94512.00;;;-1.40
10598;BMP180;5346;48.766;8.674;2023-02-28T10:52:41;94395.00;;;-1.20
10598;BMP180;5346;48.766;8.674;2023-02-28T10:55:24;94497.00;;;-1.60
10598;BMP180;5346;48.766;8.674;2023-02-28T10:57:58;94499.00;;;-1.60
10598;BMP180;5346;48.766;8.674;2023-02-28T11:00:35;94484.00;;;-1.20
10598;BMP180;5346;48.766;8.674;2023-02-28T11:03:32;94469.00;;;-1.10
10598;BMP180;5346;48.766;8.674;2023-02-28T11:06:20;94494.00;;;-1.00
10598;BMP180;5346;48.766;8.674;2023-02-28T11:11:31;94495.00;;;-0.80
10598;BMP180;5346;48.766;8.674;2023-02-28T11:14:23;94498.00;;;-0.30
10598;BMP180;5346;48.766;8.674;2023-02-28T11:17:19;94446.00;;;-0.30
10598;BMP180;5346;48.766;8.674;2023-02-28T11:19:53;94481.00;;;-0.30
10598;BMP180;5346;48.766;8.674;2023-02-28T11:22:32;94489.00;;;-0.20
10598;BMP180;5346;48.766;8.674;2023-02-28T11:27:56;94497.00;;;0.00
10598;BMP180;5346;48.766;8.674;2023-02-28T11:30:35;94500.00;;;0.20
10598;BMP180;5346;48.766;8.674;2023-02-28T11:33:32;94496.00;;;0.30
10598;BMP180;5346;48.766;8.674;2023-02-28T11:36:31;94462.00;;;0.50
10598;BMP180;5346;48.766;8.674;2023-02-28T11:39:11;94508.00;;;0.40
10598;BMP180;5346;48.766;8.674;2023-02-28T11:42:29;94496.00;;;0.20
10598;BMP180;5346;48.766;8.674;2023-02-28T12:10:29;94492.00;;;3.30
10598;BMP180;5346;48.766;8.674;2023-02-28T12:13:17;94486.00;;;3.00
10598;BMP180;5346;48.766;8.674;2023-02-28T12:19:09;94486.00;;;2.50
10598;BMP180;5346;48.766;8.674;2023-02-28T12:27:10;94487.00;;;2.10
10598;BMP180;5346;48.766;8.674;2023-02-28T12:30:03;94491.00;;;2.40
10598;BMP180;5346;48.766;8.674;2023-02-28T12:32:53;94482.00;;;2.40
10598;BMP180;5346;48.766;8.674;2023-02-28T12:35:32;94483.00;;;2.80
10598;BMP180;5346;48.766;8.674;2023-02-28T12:38:23;94453.00;;;2.50
10598;BMP180;5346;48.766;8.674;2023-02-28T12:41:05;94493.00;;;2.30
10598;BMP180;5346;48.766;8.674;2023-02-28T12:43:47;94468.00;;;3.40
10598;BMP180;5346;48.766;8.674;2023-02-28T12:46:23;94400.00;;;2.90
10598;BMP180;5346;48.766;8.674;2023-02-28T12:49:39;94400.00;;;3.40
10598;BMP180;5346;48.766;8.674;2023-02-28T12:52:12;94470.00;;;4.60
10598;BMP180;5346;48.766;8.674;2023-02-28T12:58:05;94441.00;;;4.40
10598;BMP180;5346;48.766;8.674;2023-02-28T13:09:33;94446.00;;;8.20
10598;BMP180;5346;48.766;8.674;2023-02-28T13:12:00;94449.00;;;7.30
10598;BMP180;5346;48.766;8.674;2023-02-28T13:22:44;94461.00;;;8.80
10598;BMP180;5346;48.766;8.674;2023-02-28T13:27:54;94456.00;;;8.80
10598;BMP180;5346;48.766;8.674;2023-02-28T13:41:42;94442.00;;;6.20
10598;BMP180;5346;48.766;8.674;2023-02-28T13:44:22;94486.00;;;6.30
10598;BMP180;5346;48.766;8.674;2023-02-28T13:49:42;94467.00;;;7.90
10598;BMP180;5346;48.766;8.674;2023-02-28T13:52:21;94458.00;;;6.90
10598;BMP180;5346;48.766;8.674;2023-02-28T13:55:03;94466.00;;;7.40
10598;BMP180;5346;48.766;8.674;2023-02-28T14:01:41;94498.00;;;7.00
10598;BMP180;5346;48.766;8.674;2023-02-28T14:07:37;94452.00;;;8.20
10598;BMP180;5346;48.766;8.674;2023-02-28T14:10:23;94472.00;;;8.70
10598;BMP180;5346;48.766;8.674;2023-02-28T14:13:12;94472.00;;;9.80
10598;BMP180;5346;48.766;8.674;2023-02-28T14:16:04;94466.00;;;9.40
10598;BMP180;5346;48.766;8.674;2023-02-28T14:19:00;94499.00;;;8.90
10598;BMP180;5346;48.766;8.674;2023-02-28T14:21:35;94437.00;;;6.00
10598;BMP180;5346;48.766;8.674;2023-02-28T14:27:08;94512.00;;;5.50
10598;BMP180;5346;48.766;8.674;2023-02-28T14:39:25;94483.00;;;8.00
10598;BMP180;5346;48.766;8.674;2023-02-28T14:41:59;94473.00;;;7.60
10598;BMP180;5346;48.766;8.674;2023-02-28T14:44:32;94489.00;;;7.90
10598;BMP180;5346;48.766;8.674;2023-02-28T14:47:15;94508.00;;;8.10
10598;BMP180;5346;48.766;8.674;2023-02-28T14:49:58;94479.00;;;6.80
10598;BMP180;5346;48.766;8.674;2023-02-28T14:52:32;94494.00;;;7.60
10598;BMP180;5346;48.766;8.674;2023-02-28T14:55:03;94486.00;;;8.60
10598;BMP180;5346;48.766;8.674;2023-02-28T14:57:51;94491.00;;;8.70
10598;BMP180;5346;48.766;8.674;2023-02-28T15:00:31;94478.00;;;8.20
10598;BMP180;5346;48.766;8.674;2023-02-28T15:06:22;94493.00;;;9.00
10598;BMP180;5346;48.766;8.674;2023-02-28T15:09:15;94493.00;;;7.80
10598;BMP180;5346;48.766;8.674;2023-02-28T15:11:48;94462.00;;;6.80
10598;BMP180;5346;48.766;8.674;2023-02-28T15:14:26;94520.00;;;6.50
10598;BMP180;5346;48.766;8.674;2023-02-28T15:17:02;94508.00;;;5.10
10598;BMP180;5346;48.766;8.674;2023-02-28T15:19:44;94435.00;;;4.50
10598;BMP180;5346;48.766;8.674;2023-02-28T15:22:20;94464.00;;;5.10
10598;BMP180;5346;48.766;8.674;2023-02-28T15:24:59;94520.00;;;4.70
10598;BMP180;5346;48.766;8.674;2023-02-28T15:27:32;94504.00;;;4.40
10598;BMP180;5346;48.766;8.674;2023-02-28T15:30:18;94506.00;;;4.70
10598;BMP180;5346;48.766;8.674;2023-02-28T15:33:30;94444.00;;;4.60
10598;BMP180;5346;48.766;8.674;2023-02-28T15:36:18;94494.00;;;4.60
10598;BMP180;5346;48.766;8.674;2023-02-28T15:38:55;94504.00;;;4.60
10598;BMP180;5346;48.766;8.674;2023-02-28T15:41:38;94516.00;;;4.50
10598;BMP180;5346;48.766;8.674;2023-02-28T15:44:28;94494.00;;;3.90
10598;BMP180;5346;48.766;8.674;2023-02-28T15:47:04;94516.00;;;3.40
10598;BMP180;5346;48.766;8.674;2023-02-28T15:50:08;94513.00;;;4.00
10598;BMP180;5346;48.766;8.674;2023-02-28T15:52:46;94472.00;;;4.00
10598;BMP180;5346;48.766;8.674;2023-02-28T15:55:30;94507.00;;;3.60
10598;BMP180;5346;48.766;8.674;2023-02-28T15:58:01;94467.00;;;3.10
10598;BMP180;5346;48.766;8.674;2023-02-28T16:00:35;94496.00;;;3.00
10598;BMP180;5346;48.766;8.674;2023-02-28T16:03:27;94506.00;;;2.50
10598;BMP180;5346;48.766;8.674;2023-02-28T16:06:24;94524.00;;;2.40
10598;BMP180;5346;48.766;8.674;2023-02-28T16:08:59;94523.00;;;1.80
10598;BMP180;5346;48.766;8.674;2023-02-28T16:11:38;94537.00;;;1.50
10598;BMP180;5346;48.766;8.674;2023-02-28T16:14:17;94482.00;;;1.40
10598;BMP180;5346;48.766;8.674;2023-02-28T16:16:55;94535.00;;;1.20
10598;BMP180;5346;48.766;8.674;2023-02-28T16:19:31;94493.00;;;1.10
10598;BMP180;5346;48.766;8.674;2023-02-28T16:22:01;94537.00;;;0.70
10598;BMP180;5346;48.766;8.674;2023-02-28T16:24:28;94518.00;;;0.90
10598;BMP180;5346;48.766;8.674;2023-02-28T16:27:02;94546.00;;;0.90
10598;BMP180;5346;48.766;8.674;2023-02-28T16:29:36;94538.00;;;0.70
10598;BMP180;5346;48.766;8.674;2023-02-28T16:32:15;94532.00;;;0.60
10598;BMP180;5346;48.766;8.674;2023-02-28T16:34:49;94539.00;;;0.50
10598;BMP180;5346;48.766;8.674;2023-02-28T16:37:23;94537.00;;;0.40
10598;BMP180;5346;48.766;8.674;2023-02-28T16:39:57;94542.00;;;0.50
10598;BMP180;5346;48.766;8.674;2023-02-28T16:42:32;94515.00;;;0.40
10598;BMP180;5346;48.766;8.674;2023-02-28T16:44:59;94472.00;;;0.10
10598;BMP180;5346;48.766;8.674;2023-02-28T16:47:33;94546.00;;;0.10
10598;BMP180;5346;48.766;8.674;2023-02-28T16:50:20;94527.00;;;0.00
10598;BMP180;5346;48.766;8.674;2023-02-28T16:52:55;94491.00;;;-0.20
10598;BMP180;5346;48.766;8.674;2023-02-28T16:55:25;94553.00;;;-0.20
10598;BMP180;5346;48.766;8.674;2023-02-28T16:58:03;94487.00;;;-0.20
10598;BMP180;5346;48.766;8.674;2023-02-28T17:00:32;94534.00;;;-0.40
10598;BMP180;5346;48.766;8.674;2023-02-28T17:03:22;94560.00;;;-0.60
10598;BMP180;5346;48.766;8.674;2023-02-28T17:05:58;94553.00;;;-0.70
10598;BMP180;5346;48.766;8.674;2023-02-28T17:08:32;94510.00;;;-0.70
10598;BMP180;5346;48.766;8.674;2023-02-28T17:10:59;94506.00;;;-0.70
10598;BMP180;5346;48.766;8.674;2023-02-28T17:13:37;94549.00;;;-0.80
10598;BMP180;5346;48.766;8.674;2023-02-28T17:16:25;94568.00;;;-0.90
10598;BMP180;5346;48.766;8.674;2023-02-28T17:19:03;94565.00;;;-0.90
10598;BMP180;5346;48.766;8.674;2023-02-28T17:21:31;94558.00;;;-1.10
10598;BMP180;5346;48.766;8.674;2023-02-28T17:24:05;94558.00;;;-1.20
10598;BMP180;5346;48.766;8.674;2023-02-28T17:26:44;94546.00;;;-1.20
10598;BMP180;5346;48.766;8.674;2023-02-28T17:29:21;94591.00;;;-1.20
10598;BMP180;5346;48.766;8.674;2023-02-28T17:31:55;94548.00;;;-1.20
10598;BMP180;5346;48.766;8.674;2023-02-28T17:34:26;94546.00;;;-1.20